sensor_id;sensor_type;location;lat;lon;timestamp;P1;durP1;ratioP1;P2;durP2;ratioP2
30048;SDS011;16879;50.852;15.602;2022-07-09T17:52:38;1.85;;;1.35;;
30048;SDS011;16879;50.852;15.602;2022-07-09T17:55:05;1.92;;;1.73;;
30048;SDS011;16879;50.852;15.602;2022-07-09T17:57:51;5.25;;;1.70;;
30048;SDS011;16879;50.852;15.602;2022-07-09T18:00:24;1.63;;;1.52;;
30048;SDS011;16879;50.852;15.602;2022-07-09T18:02:55;1.70;;;1.60;;
30048;SDS011;16879;50.852;15.602;2022-07-09T18:05:21;3.72;;;1.75;;
30048;SDS011;16879;50.852;15.602;2022-07-09T18:07:48;4.40;;;1.65;;
30048;SDS011;16879;50.852;15.602;2022-07-09T18:10:14;2.78;;;1.98;;
30048;SDS011;16879;50.852;15.602;2022-07-09T18:12:41;2.20;;;2.00;;
30048;SDS011;16879;50.852;15.602;2022-07-09T18:15:07;2.17;;;1.77;;
30048;SDS011;16879;50.852;15.602;2022-07-09T18:17:34;3.42;;;1.80;;
30048;SDS011;16879;50.852;15.602;2022-07-09T18:20:02;4.20;;;1.83;;
30048;SDS011;16879;50.852;15.602;2022-07-09T18:22:30;3.65;;;1.80;;
30048;SDS011;16879;50.852;15.602;2022-07-09T18:24:56;2.50;;;2.17;;
30048;SDS011;16879;50.852;15.602;2022-07-09T18:27:25;3.03;;;2.65;;
30048;SDS011;16879;50.852;15.602;2022-07-09T18:29:51;2.85;;;2.25;;
30048;SDS011;16879;50.852;15.602;2022-07-09T18:32:17;2.50;;;2.05;;
30048;SDS011;16879;50.852;15.602;2022-07-09T18:34:45;3.28;;;2.45;;
30048;SDS011;16879;50.852;15.602;2022-07-09T18:37:11;4.05;;;2.67;;
30048;SDS011;16879;50.852;15.602;2022-07-09T18:39:37;2.95;;;2.15;;
30048;SDS011;16879;50.852;15.602;2022-07-09T18:42:03;3.03;;;1.70;;
30048;SDS011;16879;50.852;15.602;2022-07-09T18:44:29;3.13;;;2.08;;
30048;SDS011;16879;50.852;15.602;2022-07-09T18:47:01;3.65;;;2.30;;
30048;SDS011;16879;50.852;15.602;2022-07-09T18:49:28;3.90;;;1.60;;
30048;SDS011;16879;50.852;15.602;2022-07-09T18:51:54;2.47;;;2.15;;
30048;SDS011;16879;50.852;15.602;2022-07-09T18:54:20;2.63;;;1.77;;
30048;SDS011;16879;50.852;15.602;2022-07-09T18:56:46;4.32;;;2.00;;
30048;SDS011;16879;50.852;15.602;2022-07-09T18:59:12;1.80;;;1.70;;
30048;SDS011;16879;50.852;15.602;2022-07-09T19:01:37;3.38;;;2.22;;
30048;SDS011;16879;50.852;15.602;2022-07-09T19:04:04;4.13;;;1.75;;
30048;SDS011;16879;50.852;15.602;2022-07-09T19:06:30;2.05;;;1.85;;
30048;SDS011;16879;50.852;15.602;2022-07-09T19:08:56;2.03;;;1.70;;
30048;SDS011;16879;50.852;15.602;2022-07-09T19:11:22;3.33;;;1.95;;
30048;SDS011;16879;50.852;15.602;2022-07-09T19:13:48;4.63;;;2.53;;
30048;SDS011;16879;50.852;15.602;2022-07-09T19:16:17;2.45;;;2.25;;
30048;SDS011;16879;50.852;15.602;2022-07-09T19:18:43;2.72;;;2.30;;
30048;SDS011;16879;50.852;15.602;2022-07-09T19:21:09;2.78;;;2.20;;
30048;SDS011;16879;50.852;15.602;2022-07-09T19:23:34;5.07;;;4.07;;
30048;SDS011;16879;50.852;15.602;2022-07-09T19:26:01;4.90;;;3.30;;
30048;SDS011;16879;50.852;15.602;2022-07-09T19:28:27;3.65;;;2.90;;
30048;SDS011;16879;50.852;15.602;2022-07-09T19:30:54;3.75;;;2.70;;
30048;SDS011;16879;50.852;15.602;2022-07-09T19:33:39;2.78;;;2.58;;
30048;SDS011;16879;50.852;15.602;2022-07-09T19:36:24;4.38;;;2.42;;
30048;SDS011;16879;50.852;15.602;2022-07-09T19:38:51;2.80;;;2.60;;
30048;SDS011;16879;50.852;15.602;2022-07-09T19:41:18;4.13;;;2.80;;
30048;SDS011;16879;50.852;15.602;2022-07-09T19:43:47;2.72;;;2.53;;
30048;SDS011;16879;50.852;15.602;2022-07-09T19:46:14;3.28;;;2.53;;
30048;SDS011;16879;50.852;15.602;2022-07-09T19:48:40;2.75;;;2.55;;
30048;SDS011;16879;50.852;15.602;2022-07-09T19:51:06;3.15;;;2.53;;
30048;SDS011;16879;50.852;15.602;2022-07-09T19:53:32;2.80;;;2.20;;
30048;SDS011;16879;50.852;15.602;2022-07-09T19:55:58;2.92;;;2.42;;
30048;SDS011;16879;50.852;15.602;2022-07-09T19:58:24;3.00;;;2.70;;
30048;SDS011;16879;50.852;15.602;2022-07-09T20:00:52;8.93;;;3.70;;
30048;SDS011;16879;50.852;15.602;2022-07-09T20:03:18;4.53;;;2.80;;
30048;SDS011;16879;50.852;15.602;2022-07-09T20:05:44;4.95;;;2.92;;
30048;SDS011;16879;50.852;15.602;2022-07-09T20:08:10;3.33;;;3.00;;
30048;SDS011;16879;50.852;15.602;2022-07-09T20:10:36;4.35;;;2.78;;
30048;SDS011;16879;50.852;15.602;2022-07-09T20:13:02;6.10;;;2.90;;
30048;SDS011;16879;50.852;15.602;2022-07-09T20:15:28;4.93;;;4.15;;
30048;SDS011;16879;50.852;15.602;2022-07-09T20:17:54;6.60;;;4.30;;
30048;SDS011;16879;50.852;15.602;2022-07-09T20:20:20;6.38;;;4.57;;
30048;SDS011;16879;50.852;15.602;2022-07-09T20:22:47;4.50;;;3.30;;
30048;SDS011;16879;50.852;15.602;2022-07-09T20:25:16;3.42;;;3.13;;
30048;SDS011;16879;50.852;15.602;2022-07-09T20:27:42;2.90;;;2.70;;
30048;SDS011;16879;50.852;15.602;2022-07-09T20:30:08;3.17;;;2.83;;
30048;SDS011;16879;50.852;15.602;2022-07-09T20:32:34;3.08;;;2.63;;
30048;SDS011;16879;50.852;15.602;2022-07-09T20:35:00;3.88;;;2.70;;
30048;SDS011;16879;50.852;15.602;2022-07-09T20:37:26;4.47;;;2.38;;
30048;SDS011;16879;50.852;15.602;2022-07-09T20:39:52;2.85;;;2.58;;
30048;SDS011;16879;50.852;15.602;2022-07-09T20:42:18;2.75;;;2.33;;
30048;SDS011;16879;50.852;15.602;2022-07-09T20:44:44;3.10;;;2.80;;
30048;SDS011;16879;50.852;15.602;2022-07-09T20:47:10;4.40;;;3.25;;
30048;SDS011;16879;50.852;15.602;2022-07-09T20:49:37;4.25;;;3.08;;
30048;SDS011;16879;50.852;15.602;2022-07-09T20:52:03;3.15;;;2.88;;
30048;SDS011;16879;50.852;15.602;2022-07-09T20:54:30;5.28;;;2.85;;
30048;SDS011;16879;50.852;15.602;2022-07-09T20:56:56;4.10;;;2.78;;
30048;SDS011;16879;50.852;15.602;2022-07-09T20:59:22;3.17;;;2.17;;
30048;SDS011;16879;50.852;15.602;2022-07-09T21:01:48;3.33;;;3.03;;
30048;SDS011;16879;50.852;15.602;2022-07-09T21:04:15;2.50;;;1.92;;
30048;SDS011;16879;50.852;15.602;2022-07-09T21:06:40;3.50;;;1.90;;
30048;SDS011;16879;50.852;15.602;2022-07-09T21:09:09;3.38;;;1.50;;
30048;SDS011;16879;50.852;15.602;2022-07-09T21:11:37;3.40;;;2.10;;
30048;SDS011;16879;50.852;15.602;2022-07-09T21:14:03;2.95;;;2.47;;
30048;SDS011;16879;50.852;15.602;2022-07-09T21:16:29;2.97;;;2.70;;
30048;SDS011;16879;50.852;15.602;2022-07-09T21:19:14;4.05;;;3.05;;
30048;SDS011;16879;50.852;15.602;2022-07-09T21:21:40;3.90;;;2.25;;
30048;SDS011;16879;50.852;15.602;2022-07-09T21:24:06;2.65;;;2.10;;
30048;SDS011;16879;50.852;15.602;2022-07-09T21:26:32;5.65;;;2.80;;
30048;SDS011;16879;50.852;15.602;2022-07-09T21:29:01;3.58;;;2.58;;
30048;SDS011;16879;50.852;15.602;2022-07-09T21:31:26;3.10;;;2.70;;
30048;SDS011;16879;50.852;15.602;2022-07-09T21:33:54;2.53;;;2.33;;
30048;SDS011;16879;50.852;15.602;2022-07-09T21:36:24;3.30;;;2.60;;
30048;SDS011;16879;50.852;15.602;2022-07-09T21:38:53;3.38;;;2.38;;
30048;SDS011;16879;50.852;15.602;2022-07-09T21:41:21;2.97;;;2.58;;
30048;SDS011;16879;50.852;15.602;2022-07-09T21:43:47;11.32;;;3.00;;
30048;SDS011;16879;50.852;15.602;2022-07-09T21:46:13;2.45;;;2.25;;
30048;SDS011;16879;50.852;15.602;2022-07-09T21:51:19;2.60;;;2.38;;
30048;SDS011;16879;50.852;15.602;2022-07-09T21:53:45;2.42;;;2.13;;
30048;SDS011;16879;50.852;15.602;2022-07-09T21:56:11;2.95;;;2.47;;
30048;SDS011;16879;50.852;15.602;2022-07-09T21:58:37;3.50;;;2.55;;
30048;SDS011;16879;50.852;15.602;2022-07-09T22:01:04;4.85;;;2.05;;
30048;SDS011;16879;50.852;15.602;2022-07-09T22:03:31;3.40;;;2.28;;
30048;SDS011;16879;50.852;15.602;2022-07-09T22:05:57;5.60;;;3.03;;
30048;SDS011;16879;50.852;15.602;2022-07-09T22:08:23;2.63;;;2.20;;
30048;SDS011;16879;50.852;15.602;2022-07-09T22:10:49;2.53;;;2.25;;
30048;SDS011;16879;50.852;15.602;2022-07-09T22:13:16;5.30;;;3.10;;
30048;SDS011;16879;50.852;15.602;2022-07-09T22:15:43;4.07;;;2.50;;
30048;SDS011;16879;50.852;15.602;2022-07-09T22:18:09;3.78;;;2.80;;
30048;SDS011;16879;50.852;15.602;2022-07-09T22:20:35;2.40;;;2.20;;
30048;SDS011;16879;50.852;15.602;2022-07-09T22:23:00;3.38;;;2.33;;
30048;SDS011;16879;50.852;15.602;2022-07-09T22:25:26;2.28;;;2.08;;
30048;SDS011;16879;50.852;15.602;2022-07-09T22:27:52;2.38;;;2.17;;
30048;SDS011;16879;50.852;15.602;2022-07-09T22:30:18;2.20;;;2.00;;
30048;SDS011;16879;50.852;15.602;2022-07-09T22:32:46;2.33;;;2.13;;
30048;SDS011;16879;50.852;15.602;2022-07-09T22:35:13;2.88;;;2.00;;
30048;SDS011;16879;50.852;15.602;2022-07-09T22:37:39;4.18;;;2.10;;
30048;SDS011;16879;50.852;15.602;2022-07-09T22:40:05;2.47;;;2.33;;
30048;SDS011;16879;50.852;15.602;2022-07-09T22:42:32;2.38;;;2.25;;
30048;SDS011;16879;50.852;15.602;2022-07-09T22:44:58;2.42;;;2.22;;
30048;SDS011;16879;50.852;15.602;2022-07-09T22:47:25;3.78;;;2.72;;
30048;SDS011;16879;50.852;15.602;2022-07-09T22:49:50;2.03;;;1.83;;
30048;SDS011;16879;50.852;15.602;2022-07-09T22:52:16;2.92;;;2.05;;
30048;SDS011;16879;50.852;15.602;2022-07-09T22:54:42;2.45;;;2.17;;
30048;SDS011;16879;50.852;15.602;2022-07-09T22:57:08;2.45;;;1.92;;
30048;SDS011;16879;50.852;15.602;2022-07-09T22:59:34;2.28;;;2.08;;
30048;SDS011;16879;50.852;15.602;2022-07-09T23:02:00;3.30;;;2.63;;
30048;SDS011;16879;50.852;15.602;2022-07-09T23:04:26;3.58;;;2.13;;
30048;SDS011;16879;50.852;15.602;2022-07-09T23:06:52;2.97;;;2.20;;
30048;SDS011;16879;50.852;15.602;2022-07-09T23:09:18;7.22;;;2.22;;
30048;SDS011;16879;50.852;15.602;2022-07-09T23:11:44;2.25;;;2.05;;
30048;SDS011;16879;50.852;15.602;2022-07-09T23:14:10;2.47;;;2.15;;
30048;SDS011;16879;50.852;15.602;2022-07-09T23:16:37;2.75;;;2.50;;
30048;SDS011;16879;50.852;15.602;2022-07-09T23:19:05;3.20;;;2.83;;
30048;SDS011;16879;50.852;15.602;2022-07-09T23:21:32;2.47;;;1.95;;
30048;SDS011;16879;50.852;15.602;2022-07-09T23:24:00;3.83;;;2.42;;
30048;SDS011;16879;50.852;15.602;2022-07-09T23:26:27;3.53;;;2.25;;
30048;SDS011;16879;50.852;15.602;2022-07-09T23:28:53;2.72;;;2.22;;
30048;SDS011;16879;50.852;15.602;2022-07-09T23:31:20;2.67;;;2.47;;
30048;SDS011;16879;50.852;15.602;2022-07-09T23:33:47;4.65;;;2.65;;
30048;SDS011;16879;50.852;15.602;2022-07-09T23:36:14;3.53;;;2.03;;
30048;SDS011;16879;50.852;15.602;2022-07-09T23:38:40;2.60;;;2.40;;
30048;SDS011;16879;50.852;15.602;2022-07-09T23:41:07;2.63;;;2.42;;
30048;SDS011;16879;50.852;15.602;2022-07-09T23:43:33;2.92;;;2.60;;
30048;SDS011;16879;50.852;15.602;2022-07-09T23:45:59;4.10;;;2.50;;
30048;SDS011;16879;50.852;15.602;2022-07-09T23:48:26;2.47;;;2.25;;
30048;SDS011;16879;50.852;15.602;2022-07-09T23:50:52;3.22;;;2.30;;
30048;SDS011;16879;50.852;15.602;2022-07-09T23:53:18;2.38;;;2.17;;
30048;SDS011;16879;50.852;15.602;2022-07-09T23:55:44;3.65;;;2.28;;
30048;SDS011;16879;50.852;15.602;2022-07-09T23:58:09;4.53;;;2.67;;
